createdAt,value
2018-01-27T00:00:05.409Z,43.00
2018-01-27T00:01:05.408Z,51.90
2018-01-27T00:02:05.416Z,51.80
2018-01-27T00:03:05.428Z,49.10
2018-01-27T00:04:05.541Z,55.00
2018-01-27T00:05:05.446Z,55.70
2018-01-27T00:06:05.451Z,50.30
2018-01-27T00:07:05.453Z,50.70
2018-01-27T00:08:05.513Z,52.20
2018-01-27T00:09:05.477Z,51.20
2018-01-27T00:10:05.482Z,50.40
2018-01-27T00:11:05.489Z,59.90
2018-01-27T00:12:05.489Z,52.10
2018-01-27T00:13:05.504Z,56.60
2018-01-27T00:14:05.510Z,64.60
2018-01-27T00:15:05.520Z,51.10
2018-01-27T00:16:05.532Z,52.70
2018-01-27T00:17:05.541Z,67.70
2018-01-27T00:18:05.543Z,63.30
2018-01-27T00:19:05.546Z,55.60
2018-01-27T00:20:05.559Z,61.00
2018-01-27T00:21:05.562Z,51.70
2018-01-27T00:22:05.585Z,49.90
2018-01-27T00:23:05.581Z,54.00
2018-01-27T00:24:05.589Z,54.10
2018-01-27T00:25:05.598Z,54.70
2018-01-27T00:26:05.608Z,55.10
2018-01-27T00:27:05.615Z,50.70
2018-01-27T00:28:05.615Z,51.50
2018-01-27T00:29:05.630Z,53.20
2018-01-27T00:30:05.636Z,53.80
2018-01-27T00:31:05.648Z,57.70
2018-01-27T00:32:05.661Z,61.00
2018-01-27T00:33:05.654Z,58.90
2018-01-27T00:34:05.666Z,58.70
2018-01-27T00:35:05.677Z,46.00
2018-01-27T00:36:05.681Z,54.50
2018-01-27T00:37:05.693Z,51.60
2018-01-27T00:38:05.705Z,49.20
2018-01-27T00:39:05.710Z,54.90
2018-01-27T00:40:05.717Z,53.00
2018-01-27T00:41:05.711Z,46.60
2018-01-27T00:42:05.718Z,53.30
2018-01-27T00:43:05.732Z,52.10
2018-01-27T00:44:05.745Z,46.60
2018-01-27T00:45:05.752Z,59.10
2018-01-27T00:46:05.758Z,50.00
2018-01-27T00:47:05.764Z,51.40
2018-01-27T00:48:05.770Z,44.70
2018-01-27T00:49:05.780Z,55.30
2018-01-27T00:50:05.792Z,54.20
2018-01-27T00:51:05.803Z,55.10
2018-01-27T00:52:05.793Z,52.70
2018-01-27T00:53:05.813Z,49.00
2018-01-27T00:54:05.818Z,52.00
2018-01-27T00:55:05.857Z,50.20
2018-01-27T00:56:05.861Z,53.30
2018-01-27T00:57:05.844Z,53.00
2018-01-27T00:58:05.849Z,54.80
2018-01-27T00:59:05.852Z,55.50
2018-01-27T01:00:05.866Z,57.40
2018-01-27T01:01:05.871Z,53.50
2018-01-27T01:02:05.881Z,55.60
2018-01-27T01:03:05.882Z,55.40
2018-01-27T01:04:05.894Z,58.20
2018-01-27T01:05:05.944Z,65.90
2018-01-27T01:06:05.911Z,56.80
2018-01-27T01:07:05.919Z,56.20
2018-01-27T01:08:05.930Z,55.70
2018-01-27T01:09:05.934Z,58.70
2018-01-27T01:10:05.941Z,55.90
2018-01-27T01:11:05.944Z,58.40
2018-01-27T01:12:05.957Z,55.40
2018-01-27T01:13:05.965Z,52.50
2018-01-27T01:14:05.970Z,55.60
2018-01-27T01:15:05.970Z,65.40
2018-01-27T01:16:05.984Z,52.10
2018-01-27T01:17:05.992Z,57.90
2018-01-27T01:18:06.005Z,61.60
2018-01-27T01:19:06.008Z,57.20
2018-01-27T01:20:06.015Z,57.30
2018-01-27T01:21:06.028Z,53.70
2018-01-27T01:22:06.026Z,57.70
2018-01-27T01:23:06.026Z,61.80
2018-01-27T01:24:06.047Z,61.20
2018-01-27T01:25:06.051Z,59.70
2018-01-27T01:26:06.057Z,56.60
2018-01-27T01:27:06.064Z,63.30
2018-01-27T01:28:06.075Z,59.40
2018-01-27T01:29:06.077Z,62.00
2018-01-27T01:30:06.091Z,62.50
2018-01-27T01:31:06.094Z,62.80
2018-01-27T01:32:06.100Z,65.60
2018-01-27T01:33:06.185Z,58.10
2018-01-27T01:34:06.123Z,61.90
2018-01-27T01:35:06.124Z,61.10
2018-01-27T01:36:06.133Z,62.00
2018-01-27T01:37:06.139Z,62.70
2018-01-27T01:38:06.143Z,57.70
2018-01-27T01:39:06.152Z,60.60
2018-01-27T01:40:06.161Z,62.40
2018-01-27T01:41:06.172Z,62.30
2018-01-27T01:42:06.191Z,56.20
2018-01-27T01:43:06.186Z,61.10
2018-01-27T01:44:06.200Z,55.50
2018-01-27T01:45:06.237Z,60.40
2018-01-27T01:46:06.224Z,56.80
2018-01-27T01:47:06.214Z,67.40
2018-01-27T01:48:06.219Z,61.70
2018-01-27T01:49:06.237Z,61.60
2018-01-27T01:50:06.235Z,55.50
2018-01-27T01:51:06.237Z,60.30
2018-01-27T01:52:06.250Z,59.20
2018-01-27T01:53:06.258Z,66.50
2018-01-27T01:54:06.266Z,59.80
2018-01-27T01:55:06.268Z,62.50
2018-01-27T01:56:06.302Z,70.60
2018-01-27T01:57:06.292Z,62.80
2018-01-27T01:58:06.293Z,62.90
2018-01-27T01:59:06.304Z,70.00
2018-01-27T02:00:06.309Z,70.70
2018-01-27T02:01:06.326Z,66.80
2018-01-27T02:02:06.328Z,66.50
2018-01-27T02:03:06.337Z,72.10
2018-01-27T02:04:06.338Z,65.50
2018-01-27T02:05:06.345Z,61.00
2018-01-27T02:06:06.353Z,61.20
2018-01-27T02:07:06.363Z,63.70
2018-01-27T02:08:06.378Z,64.20
2018-01-27T02:09:06.378Z,60.60
2018-01-27T02:10:06.380Z,70.20
2018-01-27T02:11:06.463Z,65.90
2018-01-27T02:12:06.399Z,64.60
2018-01-27T02:13:06.405Z,69.10
2018-01-27T02:14:06.418Z,64.70
2018-01-27T02:15:06.425Z,62.70
2018-01-27T02:16:06.439Z,60.80
2018-01-27T02:17:06.431Z,67.10
2018-01-27T02:18:06.447Z,64.80
2018-01-27T02:19:06.462Z,65.60
2018-01-27T02:20:06.446Z,69.30
2018-01-27T02:21:06.452Z,66.30
2018-01-27T02:22:06.470Z,62.60
2018-01-27T02:23:06.482Z,95.50
2018-01-27T02:24:06.490Z,68.40
2018-01-27T02:25:06.491Z,66.70
2018-01-27T02:26:06.507Z,92.10
2018-01-27T02:27:06.509Z,78.20
2018-01-27T02:28:06.514Z,66.40
2018-01-27T02:29:06.522Z,76.20
2018-01-27T02:30:06.528Z,70.10
2018-01-27T02:31:06.536Z,78.50
2018-01-27T02:32:06.590Z,74.70
2018-01-27T02:33:06.543Z,77.30
2018-01-27T02:34:06.614Z,65.30
2018-01-27T02:35:06.580Z,68.40
2018-01-27T02:36:06.574Z,70.50
2018-01-27T02:37:06.575Z,74.20
2018-01-27T02:38:06.580Z,68.80
2018-01-27T02:39:06.594Z,71.60
2018-01-27T02:40:06.602Z,75.90
2018-01-27T02:41:06.625Z,71.10
2018-01-27T02:42:06.628Z,73.80
2018-01-27T02:43:06.627Z,74.30
2018-01-27T02:44:06.617Z,73.70
2018-01-27T02:45:06.636Z,71.20
2018-01-27T02:46:06.658Z,76.20
2018-01-27T02:47:06.660Z,71.40
2018-01-27T02:48:06.655Z,74.20
2018-01-27T02:49:06.668Z,74.50
2018-01-27T02:50:06.737Z,71.00
2018-01-27T02:51:06.684Z,79.30
2018-01-27T02:52:06.703Z,71.00
2018-01-27T02:53:06.696Z,73.90
2018-01-27T02:54:06.706Z,76.00
2018-01-27T02:55:06.708Z,75.20
2018-01-27T02:56:06.721Z,71.70
2018-01-27T02:57:06.732Z,77.30
2018-01-27T02:58:06.731Z,71.70
2018-01-27T02:59:06.740Z,71.80
2018-01-27T03:00:06.748Z,71.70
2018-01-27T03:01:06.754Z,73.70
2018-01-27T03:02:06.760Z,81.90
2018-01-27T03:03:06.766Z,73.10
2018-01-27T03:04:06.772Z,76.90
2018-01-27T03:05:06.792Z,84.00
2018-01-27T03:06:06.790Z,79.00
2018-01-27T03:07:06.801Z,85.50
2018-01-27T03:08:06.805Z,82.30
2018-01-27T03:09:06.846Z,78.80
2018-01-27T03:10:06.830Z,81.20
2018-01-27T03:11:06.830Z,83.70
2018-01-27T03:12:06.832Z,79.20
2018-01-27T03:13:06.884Z,80.30
2018-01-27T03:14:06.842Z,85.10
2018-01-27T03:15:06.954Z,81.50
2018-01-27T03:16:06.864Z,83.40
2018-01-27T03:17:06.864Z,85.40
2018-01-27T03:18:06.878Z,84.00
2018-01-27T03:19:06.886Z,78.00
2018-01-27T03:20:06.893Z,78.40
2018-01-27T03:21:06.896Z,74.10
2018-01-27T03:22:06.904Z,82.30
2018-01-27T03:23:06.983Z,78.90
2018-01-27T03:24:06.921Z,80.10
2018-01-27T03:25:06.945Z,76.60
2018-01-27T03:26:06.934Z,85.30
2018-01-27T03:27:06.954Z,82.90
2018-01-27T03:28:06.973Z,82.10
2018-01-27T03:29:06.961Z,93.60
2018-01-27T03:30:06.964Z,87.80
2018-01-27T03:31:06.973Z,77.40
2018-01-27T03:32:06.976Z,78.40
2018-01-27T03:33:06.986Z,87.10
2018-01-27T03:34:06.994Z,81.00
2018-01-27T03:35:06.996Z,82.80
2018-01-27T03:36:07.007Z,81.00
2018-01-27T03:37:07.012Z,91.40
2018-01-27T03:38:07.020Z,81.20
2018-01-27T03:39:07.027Z,86.90
2018-01-27T03:40:07.032Z,84.50
2018-01-27T03:41:07.039Z,85.60
2018-01-27T03:42:07.050Z,81.60
2018-01-27T03:43:07.162Z,87.10
2018-01-27T03:44:07.073Z,83.50
2018-01-27T03:45:07.066Z,92.60
2018-01-27T03:46:07.079Z,83.20
2018-01-27T03:47:07.082Z,84.60
2018-01-27T03:48:07.087Z,87.10
2018-01-27T03:49:07.095Z,88.70
2018-01-27T03:50:07.111Z,83.80
2018-01-27T03:51:07.107Z,95.60
2018-01-27T03:52:07.114Z,96.20
2018-01-27T03:53:07.126Z,95.70
2018-01-27T03:54:07.135Z,99.70
2018-01-27T03:55:07.144Z,96.20
2018-01-27T03:56:07.148Z,97.90
2018-01-27T03:57:07.160Z,103.20
2018-01-27T03:58:07.162Z,103.80
2018-01-27T03:59:07.170Z,109.90
2018-01-27T04:00:07.173Z,100.60
2018-01-27T04:01:07.197Z,106.00
2018-01-27T04:02:07.191Z,98.70
2018-01-27T04:03:07.242Z,108.90
2018-01-27T04:04:07.202Z,102.30
2018-01-27T04:05:07.212Z,105.90
2018-01-27T04:06:07.658Z,105.50
2018-01-27T04:07:07.252Z,90.40
2018-01-27T04:08:07.243Z,101.70
2018-01-27T04:09:07.239Z,99.80
2018-01-27T04:10:07.242Z,100.70
2018-01-27T04:11:07.251Z,97.90
2018-01-27T04:12:07.261Z,89.00
2018-01-27T04:13:07.295Z,100.70
2018-01-27T04:14:07.276Z,98.50
2018-01-27T04:15:07.284Z,104.60
2018-01-27T04:16:07.277Z,99.20
2018-01-27T04:17:07.295Z,97.40
2018-01-27T04:18:07.308Z,98.30
2018-01-27T04:19:07.306Z,106.50
2018-01-27T04:20:07.363Z,103.00
2018-01-27T04:21:07.344Z,99.90
2018-01-27T04:22:07.357Z,108.30
2018-01-27T04:23:07.338Z,104.60
2018-01-27T04:24:07.337Z,118.30
2018-01-27T04:25:07.349Z,115.60
2018-01-27T04:26:07.350Z,109.40
2018-01-27T04:27:07.357Z,104.60
2018-01-27T04:28:07.367Z,102.00
2018-01-27T04:29:07.379Z,110.20
2018-01-27T04:30:07.384Z,113.20
2018-01-27T04:31:07.401Z,101.40
2018-01-27T04:32:07.400Z,101.70
2018-01-27T04:33:07.405Z,119.10
2018-01-27T04:34:07.414Z,109.90
2018-01-27T04:35:07.421Z,107.90
2018-01-27T04:36:07.424Z,110.70
2018-01-27T04:37:07.433Z,107.70
2018-01-27T04:38:07.443Z,107.20
2018-01-27T04:39:07.444Z,110.40
2018-01-27T04:40:07.454Z,107.80
2018-01-27T04:41:07.454Z,103.30
2018-01-27T04:42:07.466Z,110.30
2018-01-27T04:43:07.673Z,104.80
2018-01-27T04:44:07.481Z,108.10
2018-01-27T04:45:07.491Z,103.60
2018-01-27T04:46:07.491Z,116.00
2018-01-27T04:47:07.497Z,108.10
2018-01-27T04:48:07.923Z,108.40
2018-01-27T04:49:07.537Z,118.80
2018-01-27T04:50:07.521Z,107.70
2018-01-27T04:51:07.526Z,114.20
2018-01-27T04:52:07.534Z,120.50
2018-01-27T04:53:07.552Z,109.70
2018-01-27T04:54:07.556Z,115.50
2018-01-27T04:55:07.556Z,111.50
2018-01-27T04:56:07.558Z,113.60
2018-01-27T04:57:07.568Z,112.40
2018-01-27T04:58:07.586Z,114.40
2018-01-27T04:59:07.580Z,113.50
2018-01-27T05:00:07.593Z,110.40
2018-01-27T05:01:07.598Z,112.00
2018-01-27T05:02:07.610Z,112.90
2018-01-27T05:03:07.628Z,114.60
2018-01-27T05:04:07.652Z,111.90
2018-01-27T05:05:07.631Z,123.10
2018-01-27T05:06:07.635Z,129.10
2018-01-27T05:07:07.645Z,111.50
2018-01-27T05:08:07.650Z,116.30
2018-01-27T05:09:07.648Z,120.40
2018-01-27T05:10:07.659Z,114.70
2018-01-27T05:11:07.668Z,114.80
2018-01-27T05:12:07.677Z,113.20
2018-01-27T05:13:07.681Z,117.40
2018-01-27T05:14:07.691Z,112.20
2018-01-27T05:15:07.692Z,113.70
2018-01-27T05:16:07.704Z,118.90
2018-01-27T05:17:07.719Z,112.00
2018-01-27T05:18:07.776Z,115.70
2018-01-27T05:19:07.725Z,118.60
2018-01-27T05:20:07.730Z,116.60
2018-01-27T05:21:07.749Z,113.40
2018-01-27T05:22:07.743Z,113.40
2018-01-27T05:23:07.741Z,123.20
2018-01-27T05:24:07.766Z,106.00
2018-01-27T05:25:07.769Z,121.50
2018-01-27T05:26:07.776Z,111.10
2018-01-27T05:27:07.779Z,114.60
2018-01-27T05:28:07.782Z,100.70
2018-01-27T05:29:07.790Z,116.20
2018-01-27T05:30:07.859Z,114.40
2018-01-27T05:31:07.808Z,112.80
2018-01-27T05:32:08.396Z,117.30
2018-01-27T05:33:07.824Z,118.40
2018-01-27T05:34:07.830Z,118.80
2018-01-27T05:35:07.833Z,121.70
2018-01-27T05:36:07.843Z,115.50
2018-01-27T05:37:07.850Z,112.70
2018-01-27T05:38:07.854Z,112.30
2018-01-27T05:39:07.862Z,113.50
2018-01-27T05:40:07.862Z,119.30
2018-01-27T05:41:07.879Z,116.60
2018-01-27T05:42:07.875Z,114.00
2018-01-27T05:43:07.891Z,108.30
2018-01-27T05:44:07.899Z,116.00
2018-01-27T05:45:07.907Z,116.00
2018-01-27T05:46:07.910Z,109.50
2018-01-27T05:47:07.923Z,128.60
2018-01-27T05:48:07.933Z,114.10
2018-01-27T05:49:07.933Z,107.20
2018-01-27T05:50:07.941Z,119.40
2018-01-27T05:51:07.945Z,109.10
2018-01-27T05:52:07.952Z,105.90
2018-01-27T05:53:07.957Z,105.50
2018-01-27T05:54:07.966Z,111.00
2018-01-27T05:55:07.984Z,115.00
2018-01-27T05:56:07.977Z,106.60
2018-01-27T05:57:07.989Z,103.50
2018-01-27T05:58:07.991Z,106.20
2018-01-27T05:59:08.001Z,105.00
2018-01-27T06:00:08.007Z,96.70
2018-01-27T06:01:08.016Z,104.70
2018-01-27T06:02:08.025Z,109.40
2018-01-27T06:03:08.031Z,107.80
2018-01-27T06:04:08.038Z,104.30
2018-01-27T06:05:08.041Z,99.30
2018-01-27T06:06:08.046Z,102.20
2018-01-27T06:07:08.059Z,98.90
2018-01-27T06:08:08.072Z,97.00
2018-01-27T06:09:08.073Z,104.20
2018-01-27T06:10:08.083Z,108.30
2018-01-27T06:11:08.089Z,99.90
2018-01-27T06:12:08.088Z,103.10
2018-01-27T06:13:08.100Z,108.60
2018-01-27T06:14:08.111Z,105.80
2018-01-27T06:15:08.100Z,104.30
2018-01-27T06:16:08.120Z,101.90
2018-01-27T06:17:08.132Z,95.00
2018-01-27T06:18:08.133Z,103.30
2018-01-27T06:19:08.146Z,101.80
2018-01-27T06:20:08.903Z,92.10
2018-01-27T06:21:08.160Z,98.80
2018-01-27T06:22:08.160Z,100.00
2018-01-27T06:23:08.171Z,93.30
2018-01-27T06:24:08.178Z,96.40
2018-01-27T06:25:08.186Z,97.40
2018-01-27T06:26:08.183Z,106.40
2018-01-27T06:27:08.195Z,99.30
2018-01-27T06:28:08.209Z,100.50
2018-01-27T06:29:08.213Z,94.30
2018-01-27T06:30:08.223Z,100.80
2018-01-27T06:31:08.228Z,94.70
2018-01-27T06:32:08.233Z,96.00
2018-01-27T06:33:08.257Z,96.10
2018-01-27T06:34:08.245Z,101.60
2018-01-27T06:35:08.253Z,105.30
2018-01-27T06:36:08.270Z,97.70
2018-01-27T06:37:08.267Z,102.40
2018-01-27T06:38:08.272Z,97.80
2018-01-27T06:39:08.280Z,91.20
2018-01-27T06:40:08.289Z,102.30
2018-01-27T06:41:08.297Z,96.90
2018-01-27T06:42:08.306Z,92.30
2018-01-27T06:43:08.411Z,86.90
2018-01-27T06:44:08.319Z,89.60
2018-01-27T06:45:08.331Z,96.90
2018-01-27T06:46:08.331Z,87.50
2018-01-27T06:47:08.344Z,90.70
2018-01-27T06:48:08.342Z,99.10
2018-01-27T06:49:08.352Z,86.90
2018-01-27T06:50:08.358Z,92.30
2018-01-27T06:51:08.375Z,91.50
2018-01-27T06:52:08.374Z,89.20
2018-01-27T06:53:08.381Z,87.40
2018-01-27T06:54:08.438Z,89.60
2018-01-27T06:55:08.401Z,95.70
2018-01-27T06:56:08.422Z,90.80
2018-01-27T06:57:08.411Z,88.40
2018-01-27T06:58:08.431Z,88.60
2018-01-27T06:59:08.427Z,82.50
2018-01-27T07:00:08.433Z,92.50
2018-01-27T07:01:08.437Z,90.50
2018-01-27T07:02:08.455Z,94.90
2018-01-27T07:03:08.443Z,86.30
2018-01-27T07:04:08.466Z,89.10
2018-01-27T07:05:08.475Z,88.20
2018-01-27T07:06:08.552Z,84.20
2018-01-27T07:07:08.483Z,81.80
2018-01-27T07:08:08.490Z,80.90
2018-01-27T07:09:08.492Z,85.80
2018-01-27T07:10:08.502Z,82.80
2018-01-27T07:11:08.574Z,83.90
2018-01-27T07:12:08.518Z,74.60
2018-01-27T07:13:08.520Z,82.80
2018-01-27T07:14:08.533Z,83.90
2018-01-27T07:15:08.533Z,86.10
2018-01-27T07:16:08.542Z,84.30
2018-01-27T07:17:08.546Z,84.80
2018-01-27T07:18:08.564Z,81.60
2018-01-27T07:19:08.567Z,77.00
2018-01-27T07:20:08.570Z,90.70
2018-01-27T07:21:08.587Z,94.00
2018-01-27T07:22:08.591Z,85.00
2018-01-27T07:23:08.591Z,88.80
2018-01-27T07:24:08.604Z,91.00
2018-01-27T07:25:08.607Z,90.30
2018-01-27T07:26:08.619Z,88.70
2018-01-27T07:27:08.619Z,85.30
2018-01-27T07:28:08.628Z,95.00
2018-01-27T07:29:08.631Z,90.10
2018-01-27T07:30:08.649Z,90.00
2018-01-27T07:31:08.655Z,87.50
2018-01-27T07:32:08.657Z,87.10
2018-01-27T07:33:08.671Z,97.70
2018-01-27T07:34:08.726Z,92.10
2018-01-27T07:35:08.678Z,88.80
2018-01-27T07:36:08.696Z,95.50
2018-01-27T07:37:08.694Z,92.20
2018-01-27T07:38:08.698Z,92.20
2018-01-27T07:39:08.706Z,98.30
2018-01-27T07:40:08.715Z,95.70
2018-01-27T07:41:08.724Z,87.70
2018-01-27T07:42:08.731Z,107.10
2018-01-27T07:43:08.738Z,98.10
2018-01-27T07:44:09.412Z,99.50
2018-01-27T07:45:08.756Z,96.40
2018-01-27T07:46:08.756Z,88.20
2018-01-27T07:47:08.772Z,98.40
2018-01-27T07:48:08.766Z,97.50
2018-01-27T07:49:08.783Z,88.40
2018-01-27T07:50:08.802Z,96.40
2018-01-27T07:51:08.800Z,101.20
2018-01-27T07:52:08.793Z,95.60
2018-01-27T07:53:08.808Z,93.70
2018-01-27T07:54:08.809Z,98.40
2018-01-27T07:55:08.814Z,96.30
2018-01-27T07:56:08.831Z,94.40
2018-01-27T07:57:08.836Z,96.80
2018-01-27T07:58:08.849Z,96.50
2018-01-27T07:59:08.851Z,91.80
2018-01-27T08:00:08.859Z,92.50
2018-01-27T08:01:08.870Z,93.10
2018-01-27T08:02:08.881Z,93.20
2018-01-27T08:03:08.878Z,99.30
2018-01-27T08:04:08.896Z,92.90
2018-01-27T08:05:08.899Z,106.10
2018-01-27T08:06:08.908Z,99.20
2018-01-27T08:07:08.908Z,99.40
2018-01-27T08:08:08.915Z,103.20
2018-01-27T08:09:08.929Z,98.70
2018-01-27T08:10:08.923Z,99.90
2018-01-27T08:11:08.929Z,97.10
2018-01-27T08:12:08.982Z,95.10
2018-01-27T08:13:08.953Z,104.50
2018-01-27T08:14:08.963Z,103.10
2018-01-27T08:15:08.959Z,101.30
2018-01-27T08:16:08.973Z,103.30
2018-01-27T08:17:08.980Z,105.70
2018-01-27T08:18:09.004Z,103.10
2018-01-27T08:19:08.995Z,101.10
2018-01-27T08:20:08.996Z,102.90
2018-01-27T08:21:09.009Z,94.40
2018-01-27T08:22:09.017Z,98.10
2018-01-27T08:23:09.025Z,100.90
2018-01-27T08:24:09.026Z,102.90
2018-01-27T08:25:09.043Z,96.30
2018-01-27T08:26:09.045Z,108.90
2018-01-27T08:27:09.053Z,100.80
2018-01-27T08:28:09.073Z,99.50
2018-01-27T08:29:09.067Z,104.20
2018-01-27T08:30:09.074Z,100.10
2018-01-27T08:31:09.079Z,103.90
2018-01-27T08:32:09.089Z,111.80
2018-01-27T08:33:09.090Z,102.80
2018-01-27T08:34:09.103Z,111.60
2018-01-27T08:35:09.116Z,112.10
2018-01-27T08:36:09.116Z,102.70
2018-01-27T08:37:09.119Z,101.30
2018-01-27T08:38:09.129Z,102.60
2018-01-27T08:39:09.141Z,111.30
2018-01-27T08:40:09.138Z,105.30
2018-01-27T08:41:09.152Z,112.20
2018-01-27T08:42:09.159Z,104.90
2018-01-27T08:43:09.161Z,101.80
2018-01-27T08:44:09.163Z,105.00
2018-01-27T08:45:09.219Z,109.30
2018-01-27T08:46:09.188Z,103.60
2018-01-27T08:47:09.195Z,101.80
2018-01-27T08:48:09.204Z,104.20
2018-01-27T08:49:09.207Z,106.80
2018-01-27T08:50:09.229Z,108.50
2018-01-27T08:51:09.220Z,103.00
2018-01-27T08:52:09.224Z,99.80
2018-01-27T08:53:09.233Z,103.80
2018-01-27T08:54:09.243Z,108.10
2018-01-27T08:55:09.241Z,103.90
2018-01-27T08:56:09.252Z,107.40
2018-01-27T08:57:09.266Z,102.50
2018-01-27T08:58:09.275Z,101.70
2018-01-27T08:59:09.277Z,100.90
2018-01-27T09:00:09.349Z,104.50
2018-01-27T09:01:09.291Z,108.90
2018-01-27T09:02:09.304Z,104.70
2018-01-27T09:03:09.316Z,100.60
2018-01-27T09:04:09.312Z,101.10
2018-01-27T09:05:09.321Z,96.00
2018-01-27T09:06:09.322Z,96.30
2018-01-27T09:07:09.338Z,100.80
2018-01-27T09:08:09.334Z,96.00
2018-01-27T09:09:09.350Z,102.30
2018-01-27T09:10:09.370Z,99.40
2018-01-27T09:11:09.367Z,96.00
2018-01-27T09:12:09.373Z,97.90
2018-01-27T09:13:09.933Z,89.90
2018-01-27T09:14:09.388Z,92.10
2018-01-27T09:15:09.393Z,92.70
2018-01-27T09:16:09.416Z,93.90
2018-01-27T09:17:09.411Z,86.50
2018-01-27T09:18:09.418Z,85.20
2018-01-27T09:19:09.439Z,88.20
2018-01-27T09:20:09.433Z,94.90
2018-01-27T09:21:09.437Z,90.30
2018-01-27T09:22:09.453Z,82.30
2018-01-27T09:23:09.457Z,90.50
2018-01-27T09:24:09.469Z,83.70
2018-01-27T09:25:09.474Z,74.60
2018-01-27T09:26:09.482Z,78.70
2018-01-27T09:27:09.486Z,79.10
2018-01-27T09:28:09.492Z,79.20
2018-01-27T09:29:09.507Z,79.90
2018-01-27T09:30:09.506Z,80.40
2018-01-27T09:31:09.514Z,78.80
2018-01-27T09:32:09.696Z,81.20
2018-01-27T09:33:09.537Z,76.70
2018-01-27T09:34:09.546Z,78.80
2018-01-27T09:35:09.543Z,80.70
2018-01-27T09:36:09.563Z,70.40
2018-01-27T09:37:09.564Z,68.80
2018-01-27T09:38:09.568Z,72.20
2018-01-27T09:39:09.585Z,75.00
2018-01-27T09:40:09.591Z,71.20
2018-01-27T09:41:09.596Z,72.20
2018-01-27T09:42:09.607Z,72.30
2018-01-27T09:43:09.610Z,68.60
2018-01-27T09:44:09.616Z,79.20
2018-01-27T09:45:09.628Z,64.90
2018-01-27T09:46:09.633Z,69.90
2018-01-27T09:47:09.669Z,63.20
2018-01-27T09:48:09.648Z,72.60
2018-01-27T09:49:09.663Z,68.50
2018-01-27T09:50:09.685Z,62.50
2018-01-27T09:51:09.689Z,68.80
2018-01-27T09:52:09.686Z,66.10
2018-01-27T09:53:09.694Z,65.00
2018-01-27T09:54:09.708Z,58.00
2018-01-27T09:55:09.712Z,65.70
2018-01-27T09:56:09.732Z,64.90
2018-01-27T09:57:09.731Z,65.20
2018-01-27T09:58:09.740Z,47.00
2018-01-27T09:59:09.748Z,49.30
2018-01-27T10:00:09.757Z,53.90
2018-01-27T10:01:09.768Z,53.40
2018-01-27T10:02:09.772Z,54.40
2018-01-27T10:03:09.791Z,48.10
2018-01-27T10:04:09.825Z,51.50
2018-01-27T10:05:09.798Z,48.20
2018-01-27T10:06:09.812Z,45.20
2018-01-27T10:07:09.858Z,48.10
2018-01-27T10:08:09.824Z,40.90
2018-01-27T10:09:09.835Z,38.30
2018-01-27T10:10:09.845Z,42.10
2018-01-27T10:11:09.856Z,36.70
2018-01-27T10:12:09.865Z,39.00
2018-01-27T10:13:09.880Z,34.90
2018-01-27T10:14:10.002Z,38.90
2018-01-27T10:15:09.894Z,29.60
2018-01-27T10:16:09.906Z,28.30
2018-01-27T10:17:09.917Z,32.10
2018-01-27T10:18:09.931Z,32.50
2018-01-27T10:19:09.951Z,35.00
2018-01-27T10:20:09.952Z,32.20
2018-01-27T10:21:09.962Z,27.80
2018-01-27T10:22:09.974Z,26.50
2018-01-27T10:23:09.991Z,29.00
2018-01-27T10:24:09.991Z,30.40
2018-01-27T10:25:10.033Z,32.60
2018-01-27T10:26:10.043Z,32.70
2018-01-27T10:27:10.041Z,31.80
2018-01-27T10:28:10.053Z,33.70
2018-01-27T10:29:10.068Z,35.40
2018-01-27T10:30:10.078Z,38.10
2018-01-27T10:31:10.099Z,32.00
2018-01-27T10:32:10.096Z,38.60
2018-01-27T10:33:10.120Z,39.00
2018-01-27T10:34:10.122Z,45.80
2018-01-27T10:35:10.134Z,43.40
2018-01-27T10:36:10.134Z,41.90
2018-01-27T10:37:10.155Z,44.50
2018-01-27T10:38:10.184Z,46.20
2018-01-27T10:39:10.182Z,42.20
2018-01-27T10:40:10.191Z,47.40
2018-01-27T10:41:10.199Z,44.80
2018-01-27T10:42:10.212Z,43.20
2018-01-27T10:43:10.219Z,45.60
2018-01-27T10:44:10.232Z,47.10
2018-01-27T10:45:10.276Z,47.10
2018-01-27T10:46:10.251Z,47.70
2018-01-27T10:47:10.259Z,45.10
2018-01-27T10:48:10.271Z,44.20
2018-01-27T10:49:10.282Z,44.40
2018-01-27T10:50:10.298Z,48.60
2018-01-27T10:51:10.298Z,48.60
2018-01-27T10:52:10.300Z,51.30
2018-01-27T10:53:10.317Z,50.40
2018-01-27T10:54:10.331Z,41.30
2018-01-27T10:55:10.338Z,49.60
2018-01-27T10:56:10.349Z,45.10
2018-01-27T10:57:10.355Z,45.20
2018-01-27T10:58:10.372Z,47.70
2018-01-27T10:59:10.379Z,48.90
2018-01-27T11:00:10.388Z,44.70
2018-01-27T11:01:10.402Z,46.10
2018-01-27T11:02:10.411Z,49.30
2018-01-27T11:03:10.415Z,46.60
2018-01-27T11:04:10.424Z,50.40
2018-01-27T11:05:10.430Z,45.90
2018-01-27T11:06:10.448Z,48.40
2018-01-27T11:07:10.452Z,51.10
2018-01-27T11:08:10.452Z,55.20
2018-01-27T11:09:10.480Z,50.40
2018-01-27T11:10:10.495Z,51.10
2018-01-27T11:11:10.491Z,47.60
2018-01-27T11:12:10.501Z,40.30
2018-01-27T11:13:10.512Z,45.20
2018-01-27T11:14:10.517Z,42.00
2018-01-27T11:15:10.534Z,46.50
2018-01-27T11:16:10.535Z,47.90
2018-01-27T11:17:10.547Z,45.50
2018-01-27T11:18:10.555Z,48.30
2018-01-27T11:19:10.561Z,43.90
2018-01-27T11:20:10.572Z,38.50
2018-01-27T11:21:10.578Z,45.50
2018-01-27T11:22:10.594Z,41.90
2018-01-27T11:23:10.601Z,44.10
2018-01-27T11:24:10.600Z,47.30
2018-01-27T11:25:10.617Z,45.20
2018-01-27T11:26:10.621Z,46.60
2018-01-27T11:27:10.661Z,43.70
2018-01-27T11:28:10.636Z,44.20
2018-01-27T11:29:10.642Z,41.70
2018-01-27T11:30:10.651Z,42.40
2018-01-27T11:31:10.693Z,40.90
2018-01-27T11:32:10.670Z,45.40
2018-01-27T11:33:10.676Z,41.80
2018-01-27T11:34:10.686Z,49.40
2018-01-27T11:35:10.696Z,46.10
2018-01-27T11:36:10.715Z,49.50
2018-01-27T11:37:10.712Z,49.40
2018-01-27T11:38:10.707Z,51.70
2018-01-27T11:39:10.721Z,47.20
2018-01-27T11:40:10.766Z,45.60
2018-01-27T11:41:10.742Z,51.20
2018-01-27T11:42:10.747Z,50.10
2018-01-27T11:43:10.754Z,41.00
2018-01-27T11:44:10.766Z,46.20
2018-01-27T11:45:10.773Z,48.40
2018-01-27T11:46:10.776Z,49.30
2018-01-27T11:47:10.790Z,44.40
2018-01-27T11:48:10.789Z,48.50
2018-01-27T11:49:10.807Z,47.70
2018-01-27T11:50:11.462Z,47.00
2018-01-27T11:51:10.817Z,48.30
2018-01-27T11:52:10.821Z,47.80
2018-01-27T11:53:10.826Z,45.50
2018-01-27T11:54:10.840Z,52.60
2018-01-27T11:55:10.840Z,48.10
2018-01-27T11:56:10.859Z,51.80
2018-01-27T11:57:10.859Z,47.10
2018-01-27T11:58:10.865Z,51.50
2018-01-27T11:59:10.882Z,42.60
2018-01-27T12:00:10.888Z,48.00
2018-01-27T12:01:10.895Z,45.70
2018-01-27T12:02:10.905Z,40.80
2018-01-27T12:03:10.910Z,42.60
2018-01-27T12:04:10.926Z,41.60
2018-01-27T12:05:10.939Z,45.20
2018-01-27T12:06:10.936Z,46.30
2018-01-27T12:07:10.945Z,41.30
2018-01-27T12:08:10.949Z,44.00
2018-01-27T12:09:10.957Z,41.50
2018-01-27T12:10:10.979Z,43.80
2018-01-27T12:11:10.971Z,43.90
2018-01-27T12:12:10.985Z,44.80
2018-01-27T12:13:10.992Z,43.80
2018-01-27T12:14:10.994Z,40.50
2018-01-27T12:15:10.998Z,40.20
2018-01-27T12:16:11.015Z,44.50
2018-01-27T12:17:11.019Z,41.20
2018-01-27T12:18:11.080Z,37.60
2018-01-27T12:19:11.034Z,44.50
2018-01-27T12:20:11.051Z,38.30
2018-01-27T12:21:11.054Z,42.70
2018-01-27T12:22:11.085Z,40.30
2018-01-27T12:23:11.059Z,44.60
2018-01-27T12:24:11.075Z,38.60
2018-01-27T12:25:11.085Z,40.80
2018-01-27T12:26:11.094Z,38.90
2018-01-27T12:27:11.102Z,41.00
2018-01-27T12:28:11.153Z,42.60
2018-01-27T12:29:11.124Z,39.20
2018-01-27T12:30:11.149Z,42.10
2018-01-27T12:31:11.125Z,36.50
2018-01-27T12:32:11.142Z,41.90
2018-01-27T12:33:11.145Z,42.50
2018-01-27T12:34:11.162Z,38.30
2018-01-27T12:35:11.170Z,34.50
2018-01-27T12:36:11.184Z,38.90
2018-01-27T12:37:11.220Z,40.20
2018-01-27T12:38:11.191Z,37.30
2018-01-27T12:39:11.194Z,39.00
2018-01-27T12:40:11.215Z,40.50
2018-01-27T12:41:11.245Z,41.40
2018-01-27T12:42:11.268Z,39.90
2018-01-27T12:43:11.264Z,39.90
2018-01-27T12:44:11.252Z,36.80
2018-01-27T12:45:11.247Z,39.20
2018-01-27T12:46:11.249Z,37.20